createdAt,value
2023-03-17T00:00:57.510Z,101279.25
2023-03-17T00:04:04.965Z,101287.53
2023-03-17T00:07:08.613Z,101293.91
2023-03-17T00:10:18.892Z,101286.81
2023-03-17T00:13:26.949Z,101289.88
2023-03-17T00:16:32.863Z,101298.38
2023-03-17T00:19:37.451Z,101290.34
2023-03-17T00:22:39.982Z,101278.50
2023-03-17T00:25:46.793Z,101289.28
2023-03-17T00:28:51.023Z,101286.81
2023-03-17T00:31:53.742Z,101276.97
2023-03-17T00:34:59.019Z,101274.53
2023-03-17T00:38:01.253Z,101279.97
2023-03-17T00:41:09.313Z,101270.44
2023-03-17T00:44:11.989Z,101281.44
2023-03-17T00:47:16.483Z,101271.44
2023-03-17T00:50:25.472Z,101268.97
2023-03-17T00:53:30.208Z,101264.59
2023-03-17T00:56:37.489Z,101270.50
2023-03-17T00:59:45.214Z,101274.59
2023-03-17T01:02:50.866Z,101270.81
2023-03-17T01:05:55.344Z,101280.97
2023-03-17T01:08:57.619Z,101254.75
2023-03-17T01:12:03.634Z,101273.13
2023-03-17T01:15:07.053Z,101261.03
2023-03-17T01:18:15.964Z,101272.44
2023-03-17T01:21:18.329Z,101267.16
2023-03-17T01:24:23.797Z,101250.69
2023-03-17T01:27:29.088Z,101268.16
2023-03-17T01:30:38.566Z,101269.47
2023-03-17T01:33:41.906Z,101277.91
2023-03-17T01:36:44.707Z,101274.84
2023-03-17T01:39:47.695Z,101274.66
2023-03-17T01:43:18.781Z,101270.16
2023-03-17T01:46:34.079Z,101276.72
2023-03-17T01:49:38.760Z,101277.03
2023-03-17T01:52:43.343Z,101285.00
2023-03-17T01:55:48.905Z,101268.97
2023-03-17T01:58:54.388Z,101267.88
2023-03-17T02:02:03.642Z,101268.16
2023-03-17T02:05:16.975Z,101274.94
2023-03-17T02:08:19.651Z,101259.00
2023-03-17T02:11:22.526Z,101272.31
2023-03-17T02:14:26.943Z,101294.00
2023-03-17T02:17:32.072Z,101288.72
2023-03-17T02:20:34.570Z,101302.72
2023-03-17T02:23:39.288Z,101313.00
2023-03-17T02:26:49.682Z,101316.78
2023-03-17T02:29:52.153Z,101320.53
2023-03-17T02:32:56.765Z,101329.66
2023-03-17T02:36:04.344Z,101327.09
2023-03-17T02:39:07.206Z,101318.28
2023-03-17T02:42:12.763Z,101322.94
2023-03-17T02:45:17.668Z,101319.47
2023-03-17T02:48:23.723Z,101313.69
2023-03-17T02:51:28.747Z,101308.31
2023-03-17T02:54:31.661Z,101311.91
2023-03-17T02:57:34.330Z,101313.38
2023-03-17T03:00:36.725Z,101316.38
2023-03-17T03:03:43.758Z,101314.16
2023-03-17T03:06:47.675Z,101317.56
2023-03-17T03:09:50.022Z,101324.78
2023-03-17T03:12:54.480Z,101329.53
2023-03-17T03:15:57.432Z,101311.84
2023-03-17T03:18:59.909Z,101303.81
2023-03-17T03:22:02.136Z,101308.78
2023-03-17T03:25:04.786Z,101309.69
2023-03-17T03:28:08.252Z,101311.44
2023-03-17T03:31:11.333Z,101322.19
2023-03-17T03:34:13.701Z,101321.09
2023-03-17T03:37:18.514Z,101326.47
2023-03-17T03:40:20.987Z,101315.44
2023-03-17T03:43:24.186Z,101321.19
2023-03-17T03:46:26.912Z,101310.91
2023-03-17T03:49:29.332Z,101312.31
2023-03-17T03:52:36.902Z,101299.59
2023-03-17T03:55:39.506Z,101310.63
2023-03-17T03:58:42.135Z,101315.19
2023-03-17T04:01:44.624Z,101288.88
2023-03-17T04:04:49.105Z,101309.22
2023-03-17T04:07:51.491Z,101302.00
2023-03-17T04:10:56.587Z,101311.78
2023-03-17T04:14:01.765Z,101302.75
2023-03-17T04:17:06.210Z,101299.63
2023-03-17T04:20:09.421Z,101298.91
2023-03-17T04:23:11.936Z,101284.94
2023-03-17T04:26:18.738Z,101295.56
2023-03-17T04:29:23.469Z,101299.78
2023-03-17T04:32:27.196Z,101307.84
2023-03-17T04:35:29.678Z,101304.19
2023-03-17T04:38:36.891Z,101310.41
2023-03-17T04:41:42.016Z,101309.81
2023-03-17T04:44:44.389Z,101319.44
2023-03-17T04:47:48.977Z,101301.50
2023-03-17T04:50:53.618Z,101313.19
2023-03-17T04:53:58.100Z,101323.53
2023-03-17T04:57:00.407Z,101325.13
2023-03-17T05:00:06.900Z,101329.91
2023-03-17T05:03:20.175Z,101320.84
2023-03-17T05:06:28.108Z,101331.31
2023-03-17T05:09:36.192Z,101326.78
2023-03-17T05:12:40.923Z,101334.44
2023-03-17T05:15:53.404Z,101326.09
2023-03-17T05:18:55.795Z,101318.00
2023-03-17T05:22:00.570Z,101328.16
2023-03-17T05:25:03.877Z,101342.03
2023-03-17T05:28:10.876Z,101341.41
2023-03-17T05:31:13.319Z,101328.56
2023-03-17T05:34:16.072Z,101345.50
2023-03-17T05:37:18.544Z,101346.81
2023-03-17T05:40:22.566Z,101346.38
2023-03-17T05:43:26.280Z,101348.97
2023-03-17T05:46:28.694Z,101339.81
2023-03-17T05:49:31.249Z,101344.63
2023-03-17T05:52:35.761Z,101337.31
2023-03-17T05:55:40.584Z,101319.16
2023-03-17T05:58:45.103Z,101341.22
2023-03-17T06:01:47.445Z,101342.25
2023-03-17T06:04:52.220Z,101334.28
2023-03-17T06:07:56.481Z,101312.28
2023-03-17T06:10:58.953Z,101337.78
2023-03-17T06:14:08.416Z,101340.53
2023-03-17T06:17:13.428Z,101328.75
2023-03-17T06:20:18.553Z,101345.13
2023-03-17T06:23:23.803Z,101342.56
2023-03-17T06:26:26.232Z,101340.69
2023-03-17T06:29:29.683Z,101340.84
2023-03-17T06:32:32.365Z,101332.38
2023-03-17T06:35:37.287Z,101351.91
2023-03-17T06:38:42.334Z,101346.31
2023-03-17T06:41:47.225Z,101353.94
2023-03-17T06:44:52.732Z,101361.72
2023-03-17T06:47:55.153Z,101353.88
2023-03-17T06:50:57.776Z,101351.47
2023-03-17T06:54:00.126Z,101360.19
2023-03-17T06:57:02.844Z,101357.31
2023-03-17T07:00:09.667Z,101356.56
2023-03-17T07:03:11.996Z,101349.44
2023-03-17T07:06:18.625Z,101355.50
2023-03-17T07:09:22.185Z,101375.69
2023-03-17T07:12:28.387Z,101380.56
2023-03-17T07:15:35.009Z,101378.06
2023-03-17T07:18:37.633Z,101363.19
2023-03-17T07:21:40.018Z,101380.56
2023-03-17T07:24:43.299Z,101374.41
2023-03-17T07:27:48.124Z,101382.28
2023-03-17T07:30:54.575Z,101379.25
2023-03-17T07:33:57.646Z,101371.75
2023-03-17T07:37:02.939Z,101381.44
2023-03-17T07:40:10.292Z,101369.41
2023-03-17T07:43:17.841Z,101367.41
2023-03-17T07:46:23.269Z,101372.31
2023-03-17T07:49:40.502Z,101373.06
2023-03-17T07:52:48.764Z,101383.34
2023-03-17T07:55:53.276Z,101371.94
2023-03-17T07:58:57.131Z,101364.47
2023-03-17T08:02:01.300Z,101366.75
2023-03-17T08:05:07.760Z,101358.59
2023-03-17T08:08:10.781Z,101362.34
2023-03-17T08:11:15.851Z,101353.56
2023-03-17T08:14:18.264Z,101361.06
2023-03-17T08:17:21.041Z,101348.50
2023-03-17T08:20:25.580Z,101357.38
2023-03-17T08:23:31.062Z,101350.72
2023-03-17T08:26:33.861Z,101352.28
2023-03-17T08:29:39.147Z,101351.91
2023-03-17T08:32:41.465Z,101341.63
2023-03-17T08:35:50.835Z,101338.00
2023-03-17T08:38:53.444Z,101339.03
2023-03-17T08:41:55.751Z,101328.53
2023-03-17T08:44:58.212Z,101340.41
2023-03-17T08:48:04.241Z,101344.13
2023-03-17T08:51:09.389Z,101331.13
2023-03-17T08:54:19.068Z,101324.66
2023-03-17T08:57:22.774Z,101347.19
2023-03-17T09:00:28.290Z,101339.28
2023-03-17T09:03:32.721Z,101340.81
2023-03-17T09:06:38.787Z,101338.84
2023-03-17T09:09:44.466Z,101333.78
2023-03-17T09:12:53.359Z,101331.69
2023-03-17T09:15:56.195Z,101339.94
2023-03-17T09:18:58.506Z,101334.94
2023-03-17T09:22:03.324Z,101330.84
2023-03-17T09:25:07.585Z,101329.59
2023-03-17T09:28:13.057Z,101318.72
2023-03-17T09:31:15.773Z,101326.91
2023-03-17T09:34:18.725Z,101331.94
2023-03-17T09:37:23.114Z,101324.53
2023-03-17T09:40:32.969Z,101316.72
2023-03-17T09:43:38.297Z,101320.72
2023-03-17T09:46:45.205Z,101310.72
2023-03-17T09:50:05.983Z,101314.75
2023-03-17T09:53:18.122Z,101309.19
2023-03-17T09:56:21.131Z,101306.22
2023-03-17T09:59:33.723Z,101303.72
2023-03-17T10:02:37.778Z,101285.97
2023-03-17T10:05:42.625Z,101283.97
2023-03-17T10:08:54.105Z,101289.00
2023-03-17T10:12:18.376Z,101287.31
2023-03-17T10:15:32.894Z,101294.34
2023-03-17T10:18:48.236Z,101296.22
2023-03-17T10:21:58.117Z,101287.00
2023-03-17T10:25:17.592Z,101298.91
2023-03-17T10:28:32.550Z,101296.38
2023-03-17T10:31:37.916Z,101281.44
2023-03-17T10:34:41.582Z,101291.47
2023-03-17T10:37:46.928Z,101274.69
2023-03-17T10:41:00.050Z,101267.03
2023-03-17T10:44:12.464Z,101263.19
2023-03-17T10:47:38.095Z,101279.13
2023-03-17T10:50:41.185Z,101268.81
2023-03-17T10:53:44.081Z,101269.63
2023-03-17T10:56:49.173Z,101261.91
2023-03-17T10:59:57.221Z,101253.13
2023-03-17T11:03:00.835Z,101256.44
2023-03-17T11:06:08.912Z,101256.63
2023-03-17T11:09:18.498Z,101245.91
2023-03-17T11:12:28.626Z,101244.69
2023-03-17T11:15:37.115Z,101245.94
2023-03-17T11:18:40.248Z,101227.19
2023-03-17T11:21:51.719Z,101237.09
2023-03-17T11:25:10.226Z,101228.03
2023-03-17T11:28:28.152Z,101217.16
2023-03-17T11:32:12.890Z,101211.09
2023-03-17T11:35:24.153Z,101209.41
2023-03-17T11:38:30.146Z,101200.38
2023-03-17T11:42:09.468Z,101205.41
2023-03-17T11:45:42.070Z,101203.50
2023-03-17T11:48:59.052Z,101193.22
2023-03-17T11:52:32.564Z,101190.94
2023-03-17T11:55:40.815Z,101180.84
2023-03-17T11:58:48.426Z,101167.41
2023-03-17T12:02:01.516Z,101183.78
2023-03-17T12:05:06.170Z,101172.88
2023-03-17T12:08:37.723Z,101166.16
2023-03-17T12:11:44.659Z,101140.16
2023-03-17T12:14:54.588Z,101135.50
2023-03-17T12:18:07.072Z,101136.31
2023-03-17T12:21:17.597Z,101147.25
2023-03-17T12:24:30.998Z,101156.09
2023-03-17T12:27:41.354Z,101131.94
2023-03-17T12:30:49.783Z,101138.66
2023-03-17T12:34:16.515Z,101127.78
2023-03-17T12:37:22.902Z,101127.31
2023-03-17T12:40:34.817Z,101116.19
2023-03-17T12:43:40.216Z,101127.53
2023-03-17T12:47:04.024Z,101119.34
2023-03-17T12:50:34.923Z,101112.41
2023-03-17T12:53:41.393Z,101107.63
2023-03-17T12:56:48.939Z,101103.63
2023-03-17T13:00:29.644Z,101109.94
2023-03-17T13:03:38.782Z,101113.28
2023-03-17T13:06:53.176Z,101104.25
2023-03-17T13:09:55.757Z,101100.28
2023-03-17T13:13:08.955Z,101089.38
2023-03-17T13:16:37.500Z,101089.16
2023-03-17T13:19:56.050Z,101081.81
2023-03-17T13:23:14.304Z,101079.09
2023-03-17T13:26:22.077Z,101072.56
2023-03-17T13:29:28.568Z,101081.00
2023-03-17T13:32:35.929Z,101068.38
2023-03-17T13:35:53.614Z,101076.59
2023-03-17T13:39:18.970Z,101077.63
2023-03-17T13:42:35.267Z,101066.28
2023-03-17T13:45:41.405Z,101073.41
2023-03-17T13:48:46.337Z,101071.31
2023-03-17T13:52:04.399Z,101072.16
2023-03-17T13:55:38.860Z,101062.53
2023-03-17T13:59:00.229Z,101061.69
2023-03-17T14:02:17.639Z,101061.03
2023-03-17T14:05:25.253Z,101053.50
2023-03-17T14:08:34.893Z,101058.50
2023-03-17T14:11:41.185Z,101045.34
2023-03-17T14:14:58.766Z,101027.28
2023-03-17T14:18:13.015Z,101046.75
2023-03-17T14:21:37.032Z,101038.34
2023-03-17T14:24:39.925Z,101028.53
2023-03-17T14:27:47.699Z,101027.69
2023-03-17T14:30:55.567Z,101023.94
2023-03-17T14:34:00.910Z,101015.97
2023-03-17T14:37:13.134Z,101025.38
2023-03-17T14:40:26.464Z,101014.25
2023-03-17T14:43:30.969Z,101006.94
2023-03-17T14:46:42.233Z,101007.97
2023-03-17T14:49:44.862Z,101001.25
2023-03-17T14:52:52.464Z,100989.88
2023-03-17T14:55:56.391Z,100986.53
2023-03-17T14:59:16.748Z,100981.47
2023-03-17T15:02:26.425Z,100983.78
2023-03-17T15:05:42.117Z,100972.25
2023-03-17T15:08:48.119Z,100973.13
2023-03-17T15:11:52.819Z,100976.94
2023-03-17T15:15:06.378Z,100974.66
2023-03-17T15:18:15.357Z,100968.56
2023-03-17T15:21:27.996Z,100966.25
2023-03-17T15:24:40.847Z,100959.53
2023-03-17T15:27:46.943Z,100961.84
2023-03-17T15:30:54.458Z,100961.44
2023-03-17T15:33:57.914Z,100957.25
2023-03-17T15:37:02.558Z,100949.28
2023-03-17T15:40:05.824Z,100948.47
2023-03-17T15:43:15.957Z,100944.69
2023-03-17T15:46:27.345Z,100948.84
2023-03-17T15:49:30.406Z,100948.47
2023-03-17T15:52:35.925Z,100948.03
2023-03-17T15:55:40.834Z,100944.25
2023-03-17T15:58:45.284Z,100938.00
2023-03-17T16:01:49.973Z,100939.69
2023-03-17T16:04:57.815Z,100928.75
2023-03-17T16:08:00.150Z,100936.72
2023-03-17T16:11:06.624Z,100938.41
2023-03-17T16:14:16.092Z,100933.38
2023-03-17T16:17:29.064Z,100939.66
2023-03-17T16:20:37.415Z,100949.72
2023-03-17T16:23:39.827Z,100933.81
2023-03-17T16:26:44.401Z,100941.75
2023-03-17T16:29:46.661Z,100949.53
2023-03-17T16:32:52.089Z,100950.16
2023-03-17T16:35:57.605Z,100937.34
2023-03-17T16:39:02.534Z,100955.38
2023-03-17T16:42:23.257Z,100951.81
2023-03-17T16:45:32.650Z,100956.03
2023-03-17T16:48:34.956Z,100945.72
2023-03-17T16:51:37.246Z,100956.16
2023-03-17T16:54:42.001Z,100952.81
2023-03-17T16:57:52.016Z,100959.94
2023-03-17T17:00:58.801Z,100967.69
2023-03-17T17:04:01.097Z,100969.13
2023-03-17T17:07:05.757Z,100967.66
2023-03-17T17:10:09.432Z,100968.47
2023-03-17T17:13:12.751Z,100963.47
2023-03-17T17:16:23.002Z,100955.47
2023-03-17T17:19:27.817Z,100961.75
2023-03-17T17:22:30.296Z,100961.31
2023-03-17T17:25:35.776Z,100961.94
2023-03-17T17:28:40.639Z,100965.47
2023-03-17T17:31:43.702Z,100964.16
2023-03-17T17:34:46.036Z,100961.69
2023-03-17T17:37:48.394Z,100948.63
2023-03-17T17:40:50.812Z,100963.28
2023-03-17T17:43:56.136Z,100954.91
2023-03-17T17:47:03.925Z,100965.34
2023-03-17T17:50:08.334Z,100938.00
2023-03-17T17:53:13.460Z,100970.66
2023-03-17T17:56:17.992Z,100954.06
2023-03-17T17:59:20.486Z,100974.78
2023-03-17T18:02:25.181Z,100968.41
2023-03-17T18:05:30.594Z,100954.34
2023-03-17T18:08:32.968Z,100967.09
2023-03-17T18:11:38.547Z,100973.94
2023-03-17T18:14:43.168Z,100980.78
2023-03-17T18:17:47.634Z,100979.75
2023-03-17T18:20:50.108Z,100975.69
2023-03-17T18:23:55.162Z,100973.19
2023-03-17T18:26:57.436Z,100952.88
2023-03-17T18:30:06.505Z,100948.22
2023-03-17T18:33:16.557Z,100969.72
2023-03-17T18:36:21.668Z,100967.03
2023-03-17T18:39:29.824Z,100978.69
2023-03-17T18:42:32.307Z,100970.75
2023-03-17T18:45:34.703Z,100967.50
2023-03-17T18:48:44.510Z,100980.47
2023-03-17T18:51:49.264Z,100977.69
2023-03-17T18:54:56.560Z,100975.38
2023-03-17T18:57:58.898Z,100972.78
2023-03-17T19:01:21.011Z,100971.59
2023-03-17T19:04:34.333Z,100972.13
2023-03-17T19:07:38.982Z,100958.16
2023-03-17T19:10:46.609Z,100970.97
2023-03-17T19:13:54.952Z,100969.47
2023-03-17T19:17:00.035Z,100964.72
2023-03-17T19:20:08.249Z,100971.28
2023-03-17T19:23:10.782Z,100966.34
2023-03-17T19:26:17.973Z,100963.91
2023-03-17T19:29:22.744Z,100971.50
2023-03-17T19:32:27.441Z,100953.19
2023-03-17T19:35:32.534Z,100972.16
2023-03-17T19:38:34.920Z,100954.53
2023-03-17T19:41:39.824Z,100960.03
2023-03-17T19:44:42.090Z,100959.94
2023-03-17T19:47:47.206Z,100968.50
2023-03-17T19:50:50.011Z,100963.69
2023-03-17T19:53:52.285Z,100954.69
2023-03-17T19:56:54.625Z,100948.81
2023-03-17T19:59:57.375Z,100942.47
2023-03-17T20:03:04.473Z,100944.16
2023-03-17T20:06:06.967Z,100940.47
2023-03-17T20:09:14.085Z,100939.56
2023-03-17T20:12:16.576Z,100943.28
2023-03-17T20:15:21.427Z,100930.78
2023-03-17T20:18:26.092Z,100935.59
2023-03-17T20:21:31.768Z,100933.53
2023-03-17T20:24:37.124Z,100938.59
2023-03-17T20:27:39.590Z,100935.22
2023-03-17T20:30:45.304Z,100933.28
2023-03-17T20:33:47.754Z,100928.88
2023-03-17T20:36:52.792Z,100920.16
2023-03-17T20:40:00.778Z,100932.13
2023-03-17T20:43:03.506Z,100925.66
2023-03-17T20:46:08.804Z,100925.00
2023-03-17T20:49:15.842Z,100942.25
2023-03-17T20:52:22.297Z,100930.22
2023-03-17T20:55:25.329Z,100943.09
2023-03-17T20:58:27.750Z,100939.28
2023-03-17T21:01:36.924Z,100931.44
2023-03-17T21:04:39.185Z,100934.50
2023-03-17T21:07:48.845Z,100928.50
2023-03-17T21:10:51.344Z,100929.06
2023-03-17T21:13:54.088Z,100927.38
2023-03-17T21:16:59.312Z,100924.69
2023-03-17T21:20:01.819Z,100915.72
2023-03-17T21:23:07.727Z,100926.06
2023-03-17T21:26:10.708Z,100925.22
2023-03-17T21:29:13.636Z,100914.78
2023-03-17T21:32:18.914Z,100927.25
2023-03-17T21:35:22.054Z,100913.09
2023-03-17T21:38:28.599Z,100917.84
2023-03-17T21:41:34.707Z,100903.75
2023-03-17T21:44:39.730Z,100909.16
2023-03-17T21:47:44.635Z,100917.59
2023-03-17T21:50:48.929Z,100912.25
2023-03-17T21:53:53.994Z,100906.31
2023-03-17T21:56:56.590Z,100918.31
2023-03-17T22:00:00.903Z,100925.75
2023-03-17T22:03:04.242Z,100920.00
2023-03-17T22:06:12.036Z,100929.50
2023-03-17T22:09:19.138Z,100922.63
2023-03-17T22:12:21.524Z,100925.50
2023-03-17T22:15:24.353Z,100926.16
2023-03-17T22:18:28.956Z,100916.44
2023-03-17T22:21:33.987Z,100925.03
2023-03-17T22:24:40.896Z,100923.81
2023-03-17T22:27:43.430Z,100922.50
2023-03-17T22:30:49.096Z,100923.47
2023-03-17T22:33:56.210Z,100930.88
2023-03-17T22:37:01.019Z,100913.16
2023-03-17T22:40:06.917Z,100926.50
2023-03-17T22:43:11.909Z,100916.94
2023-03-17T22:46:18.051Z,100912.66
2023-03-17T22:49:23.892Z,100900.72
2023-03-17T22:52:26.116Z,100908.94
2023-03-17T22:55:28.372Z,100910.69
2023-03-17T22:58:35.985Z,100913.50
2023-03-17T23:01:39.234Z,100909.78
2023-03-17T23:04:44.060Z,100906.28
2023-03-17T23:07:53.270Z,100914.94
2023-03-17T23:10:56.215Z,100893.41
2023-03-17T23:14:04.453Z,100892.22
2023-03-17T23:17:07.488Z,100896.94
2023-03-17T23:20:12.607Z,100899.53
2023-03-17T23:23:14.972Z,100894.59
2023-03-17T23:26:19.440Z,100897.84
2023-03-17T23:29:22.699Z,100910.78
2023-03-17T23:32:24.993Z,100879.09
2023-03-17T23:35:27.909Z,100900.47
2023-03-17T23:38:37.781Z,100895.44
2023-03-17T23:41:40.114Z,100872.97
2023-03-17T23:44:42.918Z,100894.84
2023-03-17T23:47:46.716Z,100903.78
2023-03-17T23:50:53.499Z,100902.78
2023-03-17T23:53:59.175Z,100897.78
2023-03-17T23:57:02.036Z,100886.69
